RYR64KH LEPA-LIRF
Flight info
| Callsign | RYR64KH |
|---|---|
| Flight time | 1h 10m |
| Altitude | 36000 |
| Route | MORSS DCT BAVON DCT ORKUM DCT ELSAG DCT ALG DCT ROMPO DCT RUXOP DCT BATOX DCT TINTO L5 VALMA |
| Aircraft | B38M/M-SDE1FGHILORVWXY/HB1 |
Departure
| Time | 2026-05-04 14:46 |
|---|---|
| Airport | Palma de Mallorca Airport (LEPA) |
Arrival
| Time | 2026-05-04 15:56 |
|---|---|
| Airport | Rome–Fiumicino Leonardo da Vinci International Airport (LIRF) |
| Time | Latitude | Longitude | Altitude | Speed | Heading |
|---|---|---|---|---|---|
| 2026-05-04 14:22 | 39.55131 | 2.72971 | 41 ft | 0 kts | 162° |
| 2026-05-04 14:33 | 39.55148 | 2.72963 | 39 ft | 4 kts | 152° |
| 2026-05-04 14:33 | 39.55169 | 2.72942 | 38 ft | 4 kts | 127° |
| 2026-05-04 14:33 | 39.55179 | 2.72912 | 37 ft | 4 kts | 94° |
| 2026-05-04 14:33 | 39.55175 | 2.72880 | 39 ft | 3 kts | 60° |
| 2026-05-04 14:34 | 39.55173 | 2.72876 | 40 ft | 0 kts | 59° |
| 2026-05-04 14:40 | 39.55175 | 2.72881 | 39 ft | 2 kts | 59° |
| 2026-05-04 14:40 | 39.55188 | 2.72908 | 37 ft | 5 kts | 57° |
| 2026-05-04 14:40 | 39.55212 | 2.72958 | 41 ft | 8 kts | 57° |
| 2026-05-04 14:40 | 39.55249 | 2.73024 | 41 ft | 10 kts | 37° |
| 2026-05-04 14:41 | 39.55322 | 2.73014 | 40 ft | 12 kts | 330° |
| 2026-05-04 14:41 | 39.55377 | 2.72985 | 41 ft | 14 kts | 352° |
| 2026-05-04 14:41 | 39.55512 | 2.73188 | 41 ft | 18 kts | 60° |
| 2026-05-04 14:42 | 39.55656 | 2.73502 | 40 ft | 23 kts | 58° |
| 2026-05-04 14:42 | 39.55742 | 2.73682 | 41 ft | 25 kts | 58° |
| 2026-05-04 14:42 | 39.55835 | 2.73880 | 41 ft | 27 kts | 58° |
| 2026-05-04 14:43 | 39.55926 | 2.74071 | 39 ft | 13 kts | 58° |
| 2026-05-04 14:43 | 39.55976 | 2.74178 | 41 ft | 15 kts | 58° |
| 2026-05-04 14:43 | 39.56055 | 2.74278 | 41 ft | 17 kts | 29° |
| 2026-05-04 14:43 | 39.56123 | 2.74324 | 41 ft | 9 kts | 27° |
| 2026-05-04 14:44 | 39.56163 | 2.74343 | 41 ft | 4 kts | 5° |
| 2026-05-04 14:44 | 39.56174 | 2.74340 | 41 ft | 4 kts | 336° |
| 2026-05-04 14:44 | 39.56216 | 2.74278 | 41 ft | 16 kts | 277° |
| 2026-05-04 14:44 | 39.56188 | 2.74185 | 41 ft | 2 kts | 238° |
| 2026-05-04 14:45 | 39.56176 | 2.74162 | 41 ft | 4 kts | 238° |
| 2026-05-04 14:45 | 39.56155 | 2.74118 | 41 ft | 7 kts | 237° |
| 2026-05-04 14:45 | 39.56123 | 2.74055 | 41 ft | 10 kts | 238° |
| 2026-05-04 14:45 | 39.55983 | 2.73755 | 41 ft | 83 kts | 238° |
| 2026-05-04 14:46 | 39.55528 | 2.72800 | 55 ft | 161 kts | 239° |
| 2026-05-04 14:46 | 39.55007 | 2.71544 | 566 ft | 192 kts | 241° |
| 2026-05-04 14:46 | 39.54299 | 2.69914 | 1361 ft | 222 kts | 237° |
| 2026-05-04 14:46 | 39.53437 | 2.68138 | 2391 ft | 240 kts | 237° |
| 2026-05-04 14:47 | 39.52490 | 2.66269 | 3410 ft | 252 kts | 236° |
| 2026-05-04 14:47 | 39.51575 | 2.64471 | 4552 ft | 221 kts | 235° |
| 2026-05-04 14:47 | 39.50752 | 2.62821 | 4714 ft | 219 kts | 237° |
| 2026-05-04 14:47 | 39.49890 | 2.61184 | 5548 ft | 227 kts | 230° |
| 2026-05-04 14:48 | 39.48692 | 2.59736 | 6338 ft | 247 kts | 214° |
| 2026-05-04 14:48 | 39.47159 | 2.58606 | 7232 ft | 256 kts | 211° |
| 2026-05-04 14:48 | 39.45609 | 2.57467 | 8395 ft | 258 kts | 212° |
| 2026-05-04 14:48 | 39.44013 | 2.56349 | 9439 ft | 265 kts | 204° |
| 2026-05-04 14:49 | 39.42172 | 2.55977 | 10414 ft | 279 kts | 180° |
| 2026-05-04 14:49 | 39.40228 | 2.56686 | 11037 ft | 308 kts | 156° |
| 2026-05-04 14:49 | 39.38544 | 2.58588 | 11643 ft | 338 kts | 129° |
| 2026-05-04 14:49 | 39.37515 | 2.61406 | 12373 ft | 354 kts | 116° |
| 2026-05-04 14:50 | 39.36218 | 2.64097 | 13192 ft | 352 kts | 139° |
| 2026-05-04 14:50 | 39.34314 | 2.66047 | 14025 ft | 353 kts | 148° |
| 2026-05-04 14:50 | 39.32370 | 2.68055 | 14726 ft | 361 kts | 144° |
| 2026-05-04 14:50 | 39.30512 | 2.70286 | 15435 ft | 372 kts | 135° |
| 2026-05-04 14:51 | 39.29130 | 2.73138 | 16153 ft | 385 kts | 115° |
| 2026-05-04 14:51 | 39.28648 | 2.75418 | 16650 ft | 394 kts | 100° |
| 2026-05-04 14:51 | 39.28575 | 2.79001 | 17308 ft | 403 kts | 92° |
| 2026-05-04 14:51 | 39.28555 | 2.82642 | 17956 ft | 409 kts | 93° |
| 2026-05-04 14:52 | 39.28519 | 2.86343 | 18571 ft | 415 kts | 93° |
| 2026-05-04 14:52 | 39.28491 | 2.90089 | 19148 ft | 420 kts | 90° |
| 2026-05-04 14:52 | 39.28991 | 2.93830 | 19751 ft | 427 kts | 72° |
| 2026-05-04 14:52 | 39.30249 | 2.97307 | 20316 ft | 431 kts | 60° |
| 2026-05-04 14:53 | 39.31713 | 3.00719 | 20873 ft | 437 kts | 60° |
| 2026-05-04 14:53 | 39.33198 | 3.04131 | 21488 ft | 440 kts | 60° |
| 2026-05-04 14:53 | 39.34724 | 3.07596 | 22010 ft | 445 kts | 60° |
| 2026-05-04 14:53 | 39.36270 | 3.11085 | 22560 ft | 450 kts | 60° |
| 2026-05-04 14:54 | 39.37836 | 3.14614 | 23099 ft | 455 kts | 60° |
| 2026-05-04 14:54 | 39.39394 | 3.18129 | 23582 ft | 460 kts | 60° |
| 2026-05-04 14:54 | 39.40991 | 3.21735 | 24041 ft | 464 kts | 60° |
| 2026-05-04 14:54 | 39.42632 | 3.25408 | 24511 ft | 467 kts | 59° |
| 2026-05-04 14:55 | 39.44306 | 3.29017 | 24967 ft | 470 kts | 59° |
| 2026-05-04 14:55 | 39.45959 | 3.32599 | 25396 ft | 473 kts | 59° |
| 2026-05-04 14:55 | 39.47673 | 3.36322 | 25849 ft | 477 kts | 60° |
| 2026-05-04 14:55 | 39.49349 | 3.39970 | 26282 ft | 480 kts | 60° |
| 2026-05-04 14:56 | 39.51059 | 3.43697 | 26698 ft | 483 kts | 60° |
| 2026-05-04 14:56 | 39.52778 | 3.47448 | 27137 ft | 486 kts | 60° |
| 2026-05-04 14:56 | 39.54508 | 3.51227 | 27556 ft | 489 kts | 60° |
| 2026-05-04 14:56 | 39.56247 | 3.55029 | 27947 ft | 493 kts | 60° |
| 2026-05-04 14:57 | 39.57994 | 3.58855 | 28358 ft | 496 kts | 61° |
| 2026-05-04 14:57 | 39.59753 | 3.62712 | 28750 ft | 499 kts | 61° |
| 2026-05-04 14:57 | 39.61520 | 3.66591 | 29134 ft | 502 kts | 61° |
| 2026-05-04 14:57 | 39.63301 | 3.70505 | 29517 ft | 505 kts | 61° |
| 2026-05-04 14:58 | 39.65089 | 3.74439 | 29896 ft | 508 kts | 61° |
| 2026-05-04 14:58 | 39.66888 | 3.78401 | 30229 ft | 511 kts | 61° |
| 2026-05-04 14:58 | 39.68694 | 3.82382 | 30560 ft | 513 kts | 61° |
| 2026-05-04 14:58 | 39.70508 | 3.86380 | 30898 ft | 515 kts | 60° |
| 2026-05-04 14:59 | 39.72077 | 3.90524 | 31191 ft | 513 kts | 75° |
| 2026-05-04 14:59 | 39.73001 | 3.94976 | 31530 ft | 512 kts | 77° |
| 2026-05-04 14:59 | 39.75259 | 4.03849 | 32125 ft | 520 kts | 74° |
| 2026-05-04 15:00 | 39.76433 | 4.08302 | 32421 ft | 522 kts | 74° |
| 2026-05-04 15:00 | 39.77614 | 4.12773 | 32746 ft | 524 kts | 74° |
| 2026-05-04 15:00 | 39.78798 | 4.17257 | 33059 ft | 526 kts | 74° |
| 2026-05-04 15:01 | 39.81165 | 4.26247 | 33865 ft | 525 kts | 73° |
| 2026-05-04 15:01 | 39.82345 | 4.30742 | 34270 ft | 524 kts | 73° |
| 2026-05-04 15:01 | 39.83519 | 4.35221 | 34650 ft | 523 kts | 73° |
| 2026-05-04 15:01 | 39.84689 | 4.39696 | 35029 ft | 522 kts | 73° |
| 2026-05-04 15:02 | 39.85856 | 4.44164 | 35392 ft | 520 kts | 73° |
| 2026-05-04 15:02 | 39.87010 | 4.48591 | 35745 ft | 519 kts | 73° |
| 2026-05-04 15:02 | 39.88169 | 4.53046 | 35970 ft | 520 kts | 73° |
| 2026-05-04 15:02 | 39.89326 | 4.57503 | 35951 ft | 519 kts | 73° |
| 2026-05-04 15:03 | 39.91627 | 4.66386 | 35979 ft | 517 kts | 73° |
| 2026-05-04 15:03 | 39.93911 | 4.75234 | 35983 ft | 516 kts | 73° |
| 2026-05-04 15:04 | 39.96191 | 4.84100 | 35959 ft | 517 kts | 73° |
| 2026-05-04 15:04 | 39.98467 | 4.92982 | 35963 ft | 517 kts | 73° |
| 2026-05-04 15:05 | 40.00740 | 5.01884 | 35959 ft | 517 kts | 73° |
| 2026-05-04 15:05 | 40.02998 | 5.10760 | 35963 ft | 517 kts | 73° |
| 2026-05-04 15:06 | 40.05256 | 5.19672 | 35963 ft | 517 kts | 74° |
| 2026-05-04 15:07 | 40.08629 | 5.33041 | 35963 ft | 517 kts | 74° |
| 2026-05-04 15:07 | 40.10865 | 5.41945 | 35967 ft | 517 kts | 73° |
| 2026-05-04 15:08 | 40.13098 | 5.50873 | 35975 ft | 517 kts | 74° |
| 2026-05-04 15:08 | 40.15322 | 5.59793 | 35967 ft | 516 kts | 74° |
| 2026-05-04 15:09 | 40.17540 | 5.68726 | 35968 ft | 516 kts | 74° |
| 2026-05-04 15:09 | 40.19747 | 5.77648 | 35968 ft | 517 kts | 74° |
| 2026-05-04 15:10 | 40.23056 | 5.91085 | 35970 ft | 517 kts | 74° |
| 2026-05-04 15:11 | 40.26338 | 6.04530 | 35969 ft | 517 kts | 76° |
| 2026-05-04 15:11 | 40.28265 | 6.13583 | 35964 ft | 517 kts | 76° |
| 2026-05-04 15:12 | 40.30213 | 6.22652 | 35972 ft | 517 kts | 76° |
| 2026-05-04 15:12 | 40.32155 | 6.31723 | 35976 ft | 518 kts | 76° |
| 2026-05-04 15:13 | 40.34088 | 6.40786 | 35977 ft | 518 kts | 76° |
| 2026-05-04 15:13 | 40.36020 | 6.49880 | 35974 ft | 518 kts | 76° |
| 2026-05-04 15:14 | 40.38118 | 6.58578 | 35982 ft | 520 kts | 72° |
| 2026-05-04 15:14 | 40.40124 | 6.67634 | 35984 ft | 516 kts | 82° |
| 2026-05-04 15:15 | 40.41778 | 6.76843 | 35979 ft | 519 kts | 73° |
| 2026-05-04 15:15 | 40.44086 | 6.85834 | 35980 ft | 520 kts | 72° |
| 2026-05-04 15:16 | 40.47423 | 6.99317 | 35988 ft | 518 kts | 72° |
| 2026-05-04 15:17 | 40.50737 | 7.12831 | 35992 ft | 518 kts | 72° |
| 2026-05-04 15:17 | 40.54035 | 7.26359 | 35995 ft | 518 kts | 72° |
| 2026-05-04 15:18 | 40.56207 | 7.35307 | 35999 ft | 518 kts | 72° |
| 2026-05-04 15:19 | 40.59491 | 7.48909 | 36001 ft | 518 kts | 72° |
| 2026-05-04 15:19 | 40.62728 | 7.62385 | 35996 ft | 517 kts | 72° |
| 2026-05-04 15:20 | 40.64884 | 7.71414 | 36005 ft | 517 kts | 72° |
| 2026-05-04 15:20 | 40.67032 | 7.80442 | 36007 ft | 517 kts | 72° |
| 2026-05-04 15:21 | 40.69178 | 7.89494 | 36016 ft | 518 kts | 73° |
| 2026-05-04 15:22 | 40.72379 | 8.03063 | 36029 ft | 516 kts | 72° |
| 2026-05-04 15:22 | 40.75546 | 8.16570 | 36039 ft | 516 kts | 72° |
| 2026-05-04 15:23 | 40.77654 | 8.25606 | 36041 ft | 516 kts | 72° |
| 2026-05-04 15:23 | 40.79751 | 8.34628 | 36008 ft | 516 kts | 72° |
| 2026-05-04 15:24 | 40.83942 | 8.52773 | 36029 ft | 515 kts | 72° |
| 2026-05-04 15:25 | 40.86020 | 8.61822 | 36031 ft | 516 kts | 72° |
| 2026-05-04 15:26 | 40.89116 | 8.75368 | 36027 ft | 515 kts | 72° |
| 2026-05-04 15:26 | 40.92197 | 8.88942 | 36032 ft | 515 kts | 72° |
| 2026-05-04 15:27 | 40.95268 | 9.02550 | 36030 ft | 514 kts | 72° |
| 2026-05-04 15:28 | 40.98323 | 9.16165 | 36045 ft | 514 kts | 72° |
| 2026-05-04 15:29 | 41.01366 | 9.29819 | 36049 ft | 518 kts | 72° |
| 2026-05-04 15:30 | 41.08425 | 9.61813 | 36049 ft | 517 kts | 72° |
| 2026-05-04 15:31 | 41.11421 | 9.75539 | 36052 ft | 516 kts | 72° |
| 2026-05-04 15:32 | 41.14056 | 9.87677 | 35619 ft | 516 kts | 72° |
| 2026-05-04 15:32 | 41.16017 | 9.96766 | 35066 ft | 518 kts | 72° |
| 2026-05-04 15:33 | 41.18371 | 10.05785 | 34523 ft | 518 kts | 66° |
| 2026-05-04 15:34 | 41.22321 | 10.19161 | 33679 ft | 520 kts | 66° |
| 2026-05-04 15:34 | 41.23643 | 10.23632 | 33376 ft | 520 kts | 66° |
| 2026-05-04 15:34 | 41.26281 | 10.32581 | 32795 ft | 520 kts | 66° |
| 2026-05-04 15:35 | 41.28909 | 10.41527 | 32153 ft | 516 kts | 66° |
| 2026-05-04 15:35 | 41.30202 | 10.45939 | 31448 ft | 515 kts | 66° |
| 2026-05-04 15:35 | 41.31504 | 10.50394 | 30525 ft | 518 kts | 66° |
| 2026-05-04 15:36 | 41.34102 | 10.59296 | 29148 ft | 510 kts | 66° |
| 2026-05-04 15:36 | 41.35373 | 10.63663 | 28557 ft | 503 kts | 67° |
| 2026-05-04 15:36 | 41.36625 | 10.67973 | 27923 ft | 498 kts | 67° |
| 2026-05-04 15:37 | 41.37866 | 10.72251 | 27313 ft | 492 kts | 67° |
| 2026-05-04 15:37 | 41.39085 | 10.76464 | 26716 ft | 487 kts | 68° |
| 2026-05-04 15:37 | 41.40297 | 10.80653 | 26113 ft | 483 kts | 68° |
| 2026-05-04 15:37 | 41.41496 | 10.84808 | 25519 ft | 478 kts | 68° |
| 2026-05-04 15:38 | 41.42684 | 10.88932 | 24941 ft | 474 kts | 68° |
| 2026-05-04 15:38 | 41.43857 | 10.93010 | 24360 ft | 470 kts | 68° |
| 2026-05-04 15:38 | 41.45021 | 10.97060 | 23784 ft | 465 kts | 69° |
| 2026-05-04 15:38 | 41.46174 | 11.01075 | 23134 ft | 461 kts | 68° |
| 2026-05-04 15:39 | 41.47312 | 11.05045 | 22563 ft | 455 kts | 69° |
| 2026-05-04 15:39 | 41.48420 | 11.08965 | 21951 ft | 451 kts | 69° |
| 2026-05-04 15:39 | 41.50595 | 11.16689 | 20939 ft | 439 kts | 69° |
| 2026-05-04 15:40 | 41.51657 | 11.20465 | 20693 ft | 428 kts | 69° |
| 2026-05-04 15:40 | 41.52683 | 11.24119 | 20560 ft | 415 kts | 69° |
| 2026-05-04 15:40 | 41.53681 | 11.27676 | 20409 ft | 403 kts | 69° |
| 2026-05-04 15:40 | 41.54649 | 11.31131 | 20268 ft | 392 kts | 69° |
| 2026-05-04 15:41 | 41.55615 | 11.34586 | 19932 ft | 401 kts | 69° |
| 2026-05-04 15:41 | 41.56590 | 11.38078 | 19558 ft | 401 kts | 69° |
| 2026-05-04 15:41 | 41.57558 | 11.41540 | 19178 ft | 397 kts | 69° |
| 2026-05-04 15:41 | 41.58531 | 11.44976 | 18812 ft | 394 kts | 69° |
| 2026-05-04 15:42 | 41.59496 | 11.48392 | 18447 ft | 392 kts | 69° |
| 2026-05-04 15:42 | 41.60455 | 11.51791 | 18017 ft | 390 kts | 69° |
| 2026-05-04 15:42 | 41.61407 | 11.55168 | 17605 ft | 388 kts | 69° |
| 2026-05-04 15:42 | 41.62354 | 11.58537 | 17192 ft | 386 kts | 69° |
| 2026-05-04 15:43 | 41.63294 | 11.61881 | 16796 ft | 383 kts | 69° |
| 2026-05-04 15:43 | 41.64227 | 11.65207 | 16390 ft | 381 kts | 69° |
| 2026-05-04 15:43 | 41.65157 | 11.68525 | 16041 ft | 378 kts | 69° |
| 2026-05-04 15:43 | 41.66070 | 11.71787 | 15700 ft | 375 kts | 69° |
| 2026-05-04 15:44 | 41.66975 | 11.75025 | 15361 ft | 373 kts | 69° |
| 2026-05-04 15:44 | 41.67869 | 11.78228 | 15049 ft | 371 kts | 69° |
| 2026-05-04 15:44 | 41.68782 | 11.81503 | 14705 ft | 369 kts | 69° |
| 2026-05-04 15:44 | 41.69662 | 11.84664 | 14349 ft | 368 kts | 69° |
| 2026-05-04 15:45 | 41.70574 | 11.87855 | 13989 ft | 366 kts | 64° |
| 2026-05-04 15:45 | 41.72068 | 11.90558 | 13555 ft | 360 kts | 38° |
| 2026-05-04 15:45 | 41.74235 | 11.92129 | 13070 ft | 354 kts | 13° |
| 2026-05-04 15:45 | 41.76624 | 11.92834 | 12583 ft | 352 kts | 10° |
| 2026-05-04 15:46 | 41.79024 | 11.93573 | 12074 ft | 353 kts | 11° |
| 2026-05-04 15:46 | 41.81413 | 11.94327 | 11581 ft | 354 kts | 11° |
| 2026-05-04 15:46 | 41.83793 | 11.95080 | 11072 ft | 348 kts | 11° |
| 2026-05-04 15:46 | 41.86115 | 11.95810 | 10587 ft | 338 kts | 11° |
| 2026-05-04 15:47 | 41.88376 | 11.96523 | 10098 ft | 329 kts | 12° |
| 2026-05-04 15:47 | 41.90581 | 11.97220 | 9571 ft | 322 kts | 12° |
| 2026-05-04 15:47 | 41.92735 | 11.97903 | 9039 ft | 315 kts | 12° |
| 2026-05-04 15:47 | 41.94851 | 11.98577 | 8517 ft | 310 kts | 13° |
| 2026-05-04 15:48 | 41.96934 | 11.99242 | 8000 ft | 305 kts | 13° |
| 2026-05-04 15:48 | 41.98976 | 11.99894 | 7486 ft | 301 kts | 13° |
| 2026-05-04 15:48 | 42.03000 | 12.01185 | 6479 ft | 294 kts | 14° |
| 2026-05-04 15:49 | 42.04980 | 12.01821 | 5994 ft | 290 kts | 14° |
| 2026-05-04 15:49 | 42.06882 | 12.02486 | 5512 ft | 285 kts | 22° |
| 2026-05-04 15:49 | 42.08441 | 12.04015 | 5000 ft | 276 kts | 58° |
| 2026-05-04 15:49 | 42.09029 | 12.06347 | 4498 ft | 260 kts | 95° |
| 2026-05-04 15:50 | 42.08546 | 12.08581 | 4105 ft | 244 kts | 126° |
| 2026-05-04 15:50 | 42.07485 | 12.10284 | 3856 ft | 234 kts | 134° |
| 2026-05-04 15:50 | 42.06398 | 12.11922 | 3637 ft | 230 kts | 135° |
| 2026-05-04 15:50 | 42.05348 | 12.13487 | 3412 ft | 226 kts | 135° |
| 2026-05-04 15:51 | 42.04312 | 12.15019 | 3234 ft | 216 kts | 134° |
| 2026-05-04 15:51 | 42.03322 | 12.16477 | 2992 ft | 208 kts | 135° |
| 2026-05-04 15:51 | 42.02359 | 12.17889 | 2755 ft | 202 kts | 135° |
| 2026-05-04 15:51 | 42.01308 | 12.19028 | 2531 ft | 187 kts | 154° |
| 2026-05-04 15:52 | 42.00140 | 12.19642 | 2494 ft | 176 kts | 164° |
| 2026-05-04 15:52 | 41.98970 | 12.20112 | 2508 ft | 175 kts | 164° |
| 2026-05-04 15:52 | 41.97805 | 12.20598 | 2514 ft | 175 kts | 163° |
| 2026-05-04 15:52 | 41.96647 | 12.21083 | 2419 ft | 175 kts | 164° |
| 2026-05-04 15:53 | 41.95508 | 12.21563 | 2234 ft | 165 kts | 164° |
| 2026-05-04 15:53 | 41.94459 | 12.22004 | 2031 ft | 151 kts | 165° |
| 2026-05-04 15:53 | 41.93504 | 12.22406 | 1889 ft | 140 kts | 165° |
| 2026-05-04 15:53 | 41.92575 | 12.22796 | 1691 ft | 139 kts | 165° |
| 2026-05-04 15:54 | 41.91647 | 12.23189 | 1495 ft | 140 kts | 165° |
| 2026-05-04 15:54 | 41.90727 | 12.23575 | 1313 ft | 138 kts | 165° |
| 2026-05-04 15:54 | 41.89815 | 12.23958 | 1120 ft | 138 kts | 165° |
| 2026-05-04 15:54 | 41.88902 | 12.24345 | 950 ft | 137 kts | 164° |
| 2026-05-04 15:55 | 41.88001 | 12.24721 | 743 ft | 135 kts | 165° |
| 2026-05-04 15:55 | 41.87114 | 12.25116 | 562 ft | 135 kts | 165° |
| 2026-05-04 15:55 | 41.86217 | 12.25500 | 384 ft | 136 kts | 165° |
| 2026-05-04 15:55 | 41.85291 | 12.25862 | 219 ft | 140 kts | 165° |
| 2026-05-04 15:56 | 41.84363 | 12.26257 | 92 ft | 140 kts | 163° |
| 2026-05-04 15:56 | 41.83441 | 12.26640 | 36 ft | 134 kts | 165° |
| 2026-05-04 15:56 | 41.82643 | 12.26970 | 19 ft | 99 kts | 162° |
| 2026-05-04 15:56 | 41.82216 | 12.27140 | 12 ft | 39 kts | 167° |
| 2026-05-04 15:57 | 41.81960 | 12.27112 | 12 ft | 32 kts | 191° |
| 2026-05-04 15:57 | 41.81792 | 12.27065 | 19 ft | 9 kts | 192° |
| 2026-05-04 15:57 | 41.81780 | 12.27061 | 17 ft | 6 kts | 192° |
| 2026-05-04 15:57 | 41.81717 | 12.27051 | 18 ft | 11 kts | 179° |
| 2026-05-04 15:58 | 41.81638 | 12.27070 | 19 ft | 13 kts | 167° |
| 2026-05-04 15:58 | 41.81547 | 12.27107 | 20 ft | 14 kts | 160° |
| 2026-05-04 15:58 | 41.81446 | 12.27150 | 21 ft | 16 kts | 163° |
| 2026-05-04 15:58 | 41.81315 | 12.27203 | 17 ft | 25 kts | 163° |
| 2026-05-04 15:59 | 41.81118 | 12.27283 | 15 ft | 33 kts | 162° |
| 2026-05-04 15:59 | 41.80890 | 12.27356 | 16 ft | 34 kts | 181° |
| 2026-05-04 15:59 | 41.80689 | 12.27282 | 16 ft | 24 kts | 218° |
| 2026-05-04 15:59 | 41.80610 | 12.27075 | 15 ft | 27 kts | 249° |
| 2026-05-04 16:00 | 41.80564 | 12.26908 | 17 ft | 14 kts | 249° |
| 2026-05-04 16:00 | 41.80526 | 12.26768 | 16 ft | 18 kts | 250° |
| 2026-05-04 16:00 | 41.80481 | 12.26602 | 16 ft | 20 kts | 250° |
| 2026-05-04 16:00 | 41.80434 | 12.26432 | 16 ft | 10 kts | 249° |
| 2026-05-04 16:01 | 41.80412 | 12.26353 | 17 ft | 10 kts | 249° |
| 2026-05-04 16:01 | 41.80383 | 12.26251 | 18 ft | 13 kts | 249° |
| 2026-05-04 16:01 | 41.80348 | 12.26127 | 16 ft | 16 kts | 249° |
| 2026-05-04 16:01 | 41.80305 | 12.25974 | 15 ft | 19 kts | 251° |
| 2026-05-04 16:02 | 41.80259 | 12.25796 | 16 ft | 21 kts | 251° |
| 2026-05-04 16:02 | 41.80208 | 12.25606 | 18 ft | 22 kts | 250° |
| 2026-05-04 16:02 | 41.80111 | 12.25261 | 21 ft | 20 kts | 246° |
| 2026-05-04 16:03 | 41.80000 | 12.25147 | 21 ft | 22 kts | 204° |
| 2026-05-04 16:03 | 41.79886 | 12.25078 | 20 ft | 3 kts | 204° |
| 2026-05-04 16:03 | 41.79855 | 12.25060 | 19 ft | 6 kts | 204° |
| 2026-05-04 16:03 | 41.79835 | 12.25048 | 21 ft | 1 kts | 198° |
| 2026-05-04 16:04 | 41.79810 | 12.25052 | 21 ft | 6 kts | 153° |
| 2026-05-04 16:04 | 41.79782 | 12.25096 | 19 ft | 3 kts | 108° |
| 2026-05-04 16:04 | 41.79780 | 12.25109 | 19 ft | 2 kts | 102° |
| 2026-05-04 16:05 | 41.79777 | 12.25121 | 19 ft | 0 kts | 111° |